sensor_id;sensor_type;location;lat;lon;timestamp;temperature;humidity
39585;DHT22;25278;53.674;10.014;2022-09-21T03:33:29;6.10;99.90
39585;DHT22;25278;53.674;10.014;2022-09-21T03:35:54;6.10;99.90
39585;DHT22;25278;53.674;10.014;2022-09-21T03:38:20;6.10;99.90
39585;DHT22;25278;53.674;10.014;2022-09-21T03:40:47;6.00;99.90
39585;DHT22;25278;53.674;10.014;2022-09-21T03:43:13;6.10;99.90
39585;DHT22;25278;53.674;10.014;2022-09-21T03:45:39;6.20;99.90
39585;DHT22;25278;53.674;10.014;2022-09-21T03:48:09;6.00;99.90
39585;DHT22;25278;53.674;10.014;2022-09-21T03:50:35;6.00;99.90
39585;DHT22;25278;53.674;10.014;2022-09-21T03:53:00;6.00;99.90
39585;DHT22;25278;53.674;10.014;2022-09-21T03:55:26;6.00;99.90
39585;DHT22;25278;53.674;10.014;2022-09-21T03:57:51;5.80;99.90
39585;DHT22;25278;53.674;10.014;2022-09-21T04:00:17;5.80;99.90
39585;DHT22;25278;53.674;10.014;2022-09-21T04:02:43;6.00;99.90
39585;DHT22;25278;53.674;10.014;2022-09-21T04:07:36;6.10;99.90
39585;DHT22;25278;53.674;10.014;2022-09-21T04:10:05;5.80;99.90
39585;DHT22;25278;53.674;10.014;2022-09-21T04:12:34;5.90;99.90
39585;DHT22;25278;53.674;10.014;2022-09-21T04:15:00;5.90;99.90
39585;DHT22;25278;53.674;10.014;2022-09-21T04:17:27;5.90;99.90
39585;DHT22;25278;53.674;10.014;2022-09-21T04:19:52;5.90;99.90
39585;DHT22;25278;53.674;10.014;2022-09-21T04:22:18;5.80;99.90
39585;DHT22;25278;53.674;10.014;2022-09-21T04:24:44;5.80;99.90
39585;DHT22;25278;53.674;10.014;2022-09-21T04:27:10;5.70;99.90
39585;DHT22;25278;53.674;10.014;2022-09-21T04:29:37;5.80;99.90
39585;DHT22;25278;53.674;10.014;2022-09-21T04:32:03;5.80;99.90
39585;DHT22;25278;53.674;10.014;2022-09-21T04:34:29;5.90;99.90
39585;DHT22;25278;53.674;10.014;2022-09-21T04:36:56;5.80;99.90
39585;DHT22;25278;53.674;10.014;2022-09-21T04:39:22;5.80;99.90
39585;DHT22;25278;53.674;10.014;2022-09-21T04:41:48;5.80;99.90
39585;DHT22;25278;53.674;10.014;2022-09-21T04:44:14;5.80;99.90
39585;DHT22;25278;53.674;10.014;2022-09-21T04:53:59;5.60;99.90
39585;DHT22;25278;53.674;10.014;2022-09-21T04:56:25;5.60;99.90
39585;DHT22;25278;53.674;10.014;2022-09-21T04:58:50;5.70;99.90
39585;DHT22;25278;53.674;10.014;2022-09-21T05:01:16;5.70;99.90
39585;DHT22;25278;53.674;10.014;2022-09-21T05:03:41;5.70;99.90
39585;DHT22;25278;53.674;10.014;2022-09-21T05:06:07;5.70;99.90
39585;DHT22;25278;53.674;10.014;2022-09-21T05:08:33;5.70;99.90
39585;DHT22;25278;53.674;10.014;2022-09-21T05:11:18;5.60;99.90
39585;DHT22;25278;53.674;10.014;2022-09-21T05:13:44;5.60;99.90
39585;DHT22;25278;53.674;10.014;2022-09-21T05:16:10;5.60;99.90
39585;DHT22;25278;53.674;10.014;2022-09-21T05:18:36;5.70;99.90
39585;DHT22;25278;53.674;10.014;2022-09-21T05:21:02;5.60;99.90
39585;DHT22;25278;53.674;10.014;2022-09-21T05:23:30;5.50;99.90
39585;DHT22;25278;53.674;10.014;2022-09-21T05:25:56;5.40;99.90
39585;DHT22;25278;53.674;10.014;2022-09-21T05:28:22;5.40;99.90
39585;DHT22;25278;53.674;10.014;2022-09-21T05:30:57;5.40;99.90
39585;DHT22;25278;53.674;10.014;2022-09-21T05:33:26;5.40;99.90
39585;DHT22;25278;53.674;10.014;2022-09-21T05:36:10;5.50;99.90
39585;DHT22;25278;53.674;10.014;2022-09-21T05:38:41;5.60;99.90
39585;DHT22;25278;53.674;10.014;2022-09-21T05:41:07;5.60;99.90
39585;DHT22;25278;53.674;10.014;2022-09-21T05:43:34;5.60;99.90
39585;DHT22;25278;53.674;10.014;2022-09-21T05:46:23;5.60;99.90
39585;DHT22;25278;53.674;10.014;2022-09-21T05:49:02;5.70;99.90
39585;DHT22;25278;53.674;10.014;2022-09-21T05:51:40;5.80;99.90
39585;DHT22;25278;53.674;10.014;2022-09-21T05:54:20;5.90;99.90
39585;DHT22;25278;53.674;10.014;2022-09-21T05:57:14;6.00;99.90
39585;DHT22;25278;53.674;10.014;2022-09-21T05:59:45;6.20;99.90
39585;DHT22;25278;53.674;10.014;2022-09-21T06:05:12;6.30;99.90
39585;DHT22;25278;53.674;10.014;2022-09-21T06:07:38;6.50;99.90
39585;DHT22;25278;53.674;10.014;2022-09-21T06:10:04;6.60;99.90
39585;DHT22;25278;53.674;10.014;2022-09-21T06:12:30;6.70;99.90
39585;DHT22;25278;53.674;10.014;2022-09-21T06:14:55;6.80;99.90
39585;DHT22;25278;53.674;10.014;2022-09-21T06:17:21;6.90;99.90
39585;DHT22;25278;53.674;10.014;2022-09-21T06:19:47;7.10;99.90
39585;DHT22;25278;53.674;10.014;2022-09-21T06:22:12;7.20;99.90
39585;DHT22;25278;53.674;10.014;2022-09-21T06:24:38;7.30;99.90
39585;DHT22;25278;53.674;10.014;2022-09-21T06:27:03;7.40;99.90
39585;DHT22;25278;53.674;10.014;2022-09-21T06:29:29;7.50;99.90
39585;DHT22;25278;53.674;10.014;2022-09-21T06:31:54;7.70;99.90
39585;DHT22;25278;53.674;10.014;2022-09-21T06:34:20;7.80;99.90
39585;DHT22;25278;53.674;10.014;2022-09-21T06:36:45;8.00;99.90
39585;DHT22;25278;53.674;10.014;2022-09-21T06:39:11;8.10;99.90
39585;DHT22;25278;53.674;10.014;2022-09-21T06:41:37;8.20;99.90
39585;DHT22;25278;53.674;10.014;2022-09-21T06:44:02;8.40;99.90
39585;DHT22;25278;53.674;10.014;2022-09-21T06:46:28;8.50;99.90
39585;DHT22;25278;53.674;10.014;2022-09-21T06:48:53;8.70;99.90
39585;DHT22;25278;53.674;10.014;2022-09-21T06:51:19;8.70;99.90
39585;DHT22;25278;53.674;10.014;2022-09-21T06:53:46;8.90;99.90
39585;DHT22;25278;53.674;10.014;2022-09-21T06:56:12;9.00;99.90
39585;DHT22;25278;53.674;10.014;2022-09-21T06:58:38;9.20;99.90
39585;DHT22;25278;53.674;10.014;2022-09-21T07:01:11;9.40;99.90
39585;DHT22;25278;53.674;10.014;2022-09-21T07:03:38;9.50;99.90
39585;DHT22;25278;53.674;10.014;2022-09-21T07:06:05;9.70;99.90
39585;DHT22;25278;53.674;10.014;2022-09-21T07:08:31;9.80;99.90
39585;DHT22;25278;53.674;10.014;2022-09-21T07:10:58;10.00;99.90
39585;DHT22;25278;53.674;10.014;2022-09-21T07:13:28;10.10;99.90
39585;DHT22;25278;53.674;10.014;2022-09-21T07:15:53;10.10;99.90
39585;DHT22;25278;53.674;10.014;2022-09-21T07:18:20;10.20;99.90
39585;DHT22;25278;53.674;10.014;2022-09-21T07:20:46;10.30;99.90
39585;DHT22;25278;53.674;10.014;2022-09-21T07:23:15;10.40;99.90
39585;DHT22;25278;53.674;10.014;2022-09-21T07:25:42;10.50;99.90
39585;DHT22;25278;53.674;10.014;2022-09-21T07:28:09;10.60;99.90
39585;DHT22;25278;53.674;10.014;2022-09-21T07:30:36;10.70;99.90
39585;DHT22;25278;53.674;10.014;2022-09-21T07:33:02;10.90;99.90
39585;DHT22;25278;53.674;10.014;2022-09-21T07:35:28;11.00;99.90
39585;DHT22;25278;53.674;10.014;2022-09-21T07:37:57;11.10;99.90
39585;DHT22;25278;53.674;10.014;2022-09-21T07:40:22;11.20;99.90
39585;DHT22;25278;53.674;10.014;2022-09-21T07:42:48;11.30;99.90
39585;DHT22;25278;53.674;10.014;2022-09-21T07:45:14;11.30;99.90
39585;DHT22;25278;53.674;10.014;2022-09-21T07:47:39;11.40;99.90
39585;DHT22;25278;53.674;10.014;2022-09-21T07:50:05;11.50;99.90
39585;DHT22;25278;53.674;10.014;2022-09-21T07:52:31;11.70;99.90
39585;DHT22;25278;53.674;10.014;2022-09-21T07:54:56;11.90;99.90
39585;DHT22;25278;53.674;10.014;2022-09-21T07:57:22;12.10;99.90
39585;DHT22;25278;53.674;10.014;2022-09-21T08:00:06;12.30;99.90
39585;DHT22;25278;53.674;10.014;2022-09-21T08:02:33;12.50;99.90
39585;DHT22;25278;53.674;10.014;2022-09-21T08:04:58;12.60;99.90
39585;DHT22;25278;53.674;10.014;2022-09-21T08:07:24;12.80;99.90
39585;DHT22;25278;53.674;10.014;2022-09-21T08:09:50;13.00;99.90
39585;DHT22;25278;53.674;10.014;2022-09-21T08:12:16;13.10;99.90
39585;DHT22;25278;53.674;10.014;2022-09-21T08:14:45;13.30;99.90
39585;DHT22;25278;53.674;10.014;2022-09-21T08:17:10;13.60;99.90
39585;DHT22;25278;53.674;10.014;2022-09-21T08:22:02;14.20;99.90
39585;DHT22;25278;53.674;10.014;2022-09-21T08:24:27;14.60;99.90
39585;DHT22;25278;53.674;10.014;2022-09-21T08:26:53;14.90;99.90
39585;DHT22;25278;53.674;10.014;2022-09-21T08:29:20;15.00;99.90
39585;DHT22;25278;53.674;10.014;2022-09-21T08:31:45;15.20;99.90
39585;DHT22;25278;53.674;10.014;2022-09-21T08:34:11;15.40;99.90
39585;DHT22;25278;53.674;10.014;2022-09-21T08:36:37;15.50;99.90
39585;DHT22;25278;53.674;10.014;2022-09-21T08:39:06;15.60;99.90
39585;DHT22;25278;53.674;10.014;2022-09-21T08:44:12;15.80;99.90
39585;DHT22;25278;53.674;10.014;2022-09-21T08:46:40;16.00;99.90
39585;DHT22;25278;53.674;10.014;2022-09-21T08:49:14;16.20;99.90
39585;DHT22;25278;53.674;10.014;2022-09-21T08:51:50;16.30;99.90
39585;DHT22;25278;53.674;10.014;2022-09-21T08:57:17;16.10;99.90
39585;DHT22;25278;53.674;10.014;2022-09-21T08:59:44;16.30;99.90
39585;DHT22;25278;53.674;10.014;2022-09-21T09:19:42;17.60;99.90
39585;DHT22;25278;53.674;10.014;2022-09-21T09:22:14;17.60;99.90
39585;DHT22;25278;53.674;10.014;2022-09-21T09:24:49;17.40;99.90
39585;DHT22;25278;53.674;10.014;2022-09-21T09:27:30;17.60;99.90
39585;DHT22;25278;53.674;10.014;2022-09-21T09:30:03;17.80;99.90
39585;DHT22;25278;53.674;10.014;2022-09-21T09:32:36;17.80;99.90
39585;DHT22;25278;53.674;10.014;2022-09-21T09:35:19;17.70;99.90
39585;DHT22;25278;53.674;10.014;2022-09-21T09:37:46;17.80;99.90
39585;DHT22;25278;53.674;10.014;2022-09-21T09:40:13;18.00;99.90
39585;DHT22;25278;53.674;10.014;2022-09-21T09:42:57;18.20;99.90
39585;DHT22;25278;53.674;10.014;2022-09-21T09:45:47;18.20;99.90
39585;DHT22;25278;53.674;10.014;2022-09-21T09:48:35;18.10;99.90
39585;DHT22;25278;53.674;10.014;2022-09-21T09:51:02;18.30;99.90
39585;DHT22;25278;53.674;10.014;2022-09-21T09:53:28;18.40;99.90
39585;DHT22;25278;53.674;10.014;2022-09-21T09:55:56;18.40;99.90
39585;DHT22;25278;53.674;10.014;2022-09-21T09:58:36;18.90;99.90
39585;DHT22;25278;53.674;10.014;2022-09-21T10:01:04;19.50;99.90
39585;DHT22;25278;53.674;10.014;2022-09-21T10:03:29;19.40;99.90
39585;DHT22;25278;53.674;10.014;2022-09-21T10:05:55;19.20;99.90
39585;DHT22;25278;53.674;10.014;2022-09-21T10:10:53;18.70;99.90
39585;DHT22;25278;53.674;10.014;2022-09-21T10:13:28;19.90;99.90
39585;DHT22;25278;53.674;10.014;2022-09-21T10:15:58;21.60;99.90
39585;DHT22;25278;53.674;10.014;2022-09-21T10:18:38;23.30;99.90
39585;DHT22;25278;53.674;10.014;2022-09-21T10:21:08;25.00;99.90
39585;DHT22;25278;53.674;10.014;2022-09-21T10:23:45;26.60;99.90
39585;DHT22;25278;53.674;10.014;2022-09-21T10:26:12;27.70;99.90
39585;DHT22;25278;53.674;10.014;2022-09-21T10:29:54;28.00;99.90
39585;DHT22;25278;53.674;10.014;2022-09-21T10:32:04;28.10;99.90
39585;DHT22;25278;53.674;10.014;2022-09-21T10:34:33;28.60;99.90
39585;DHT22;25278;53.674;10.014;2022-09-21T10:37:01;29.20;99.40
39585;DHT22;25278;53.674;10.014;2022-09-21T10:39:31;29.10;95.00
39585;DHT22;25278;53.674;10.014;2022-09-21T10:42:11;29.20;94.70
39585;DHT22;25278;53.674;10.014;2022-09-21T10:44:49;28.40;92.80
39585;DHT22;25278;53.674;10.014;2022-09-21T10:50:24;27.60;92.10
39585;DHT22;25278;53.674;10.014;2022-09-21T10:52:54;26.90;92.00
39585;DHT22;25278;53.674;10.014;2022-09-21T10:55:22;27.60;92.10
39585;DHT22;25278;53.674;10.014;2022-09-21T10:57:50;28.40;90.60
39585;DHT22;25278;53.674;10.014;2022-09-21T11:00:28;29.10;91.30
39585;DHT22;25278;53.674;10.014;2022-09-21T11:03:01;30.00;90.80
39585;DHT22;25278;53.674;10.014;2022-09-21T11:05:31;30.70;86.30
39585;DHT22;25278;53.674;10.014;2022-09-21T11:08:06;31.30;81.00
39585;DHT22;25278;53.674;10.014;2022-09-21T11:10:52;31.70;79.00
39585;DHT22;25278;53.674;10.014;2022-09-21T11:13:31;32.00;80.90
39585;DHT22;25278;53.674;10.014;2022-09-21T11:16:00;32.40;81.00
39585;DHT22;25278;53.674;10.014;2022-09-21T11:18:42;31.20;81.20
39585;DHT22;25278;53.674;10.014;2022-09-21T11:22:34;30.90;84.10
39585;DHT22;25278;53.674;10.014;2022-09-21T11:27:18;32.90;82.00
39585;DHT22;25278;53.674;10.014;2022-09-21T11:30:11;33.50;81.60
39585;DHT22;25278;53.674;10.014;2022-09-21T11:35:17;33.20;76.90
39585;DHT22;25278;53.674;10.014;2022-09-21T11:37:49;32.80;78.60
39585;DHT22;25278;53.674;10.014;2022-09-21T11:40:34;33.60;74.60
39585;DHT22;25278;53.674;10.014;2022-09-21T11:48:43;33.90;72.80
39585;DHT22;25278;53.674;10.014;2022-09-21T11:51:18;34.20;70.30
39585;DHT22;25278;53.674;10.014;2022-09-21T11:54:21;33.70;67.90
39585;DHT22;25278;53.674;10.014;2022-09-21T11:59:33;31.50;72.70
39585;DHT22;25278;53.674;10.014;2022-09-21T12:04:48;33.30;68.00
39585;DHT22;25278;53.674;10.014;2022-09-21T12:12:42;32.90;72.10
39585;DHT22;25278;53.674;10.014;2022-09-21T12:18:08;30.30;69.60
39585;DHT22;25278;53.674;10.014;2022-09-21T12:20:50;29.00;73.20
39585;DHT22;25278;53.674;10.014;2022-09-21T12:23:42;29.90;72.90
39585;DHT22;25278;53.674;10.014;2022-09-21T12:26:13;31.20;71.30
39585;DHT22;25278;53.674;10.014;2022-09-21T12:28:50;32.00;67.00
39585;DHT22;25278;53.674;10.014;2022-09-21T12:31:22;31.10;66.60
39585;DHT22;25278;53.674;10.014;2022-09-21T12:34:20;31.90;68.30
39585;DHT22;25278;53.674;10.014;2022-09-21T12:39:28;34.70;64.70
39585;DHT22;25278;53.674;10.014;2022-09-21T12:42:04;35.30;63.90
39585;DHT22;25278;53.674;10.014;2022-09-21T12:44:44;35.60;61.00
39585;DHT22;25278;53.674;10.014;2022-09-21T12:47:27;35.30;62.20
39585;DHT22;25278;53.674;10.014;2022-09-21T12:50:03;34.90;62.70
39585;DHT22;25278;53.674;10.014;2022-09-21T12:52:30;35.10;62.50
39585;DHT22;25278;53.674;10.014;2022-09-21T12:55:19;35.60;60.40
39585;DHT22;25278;53.674;10.014;2022-09-21T13:00:23;36.10;60.10
39585;DHT22;25278;53.674;10.014;2022-09-21T13:03:19;36.40;57.50
39585;DHT22;25278;53.674;10.014;2022-09-21T13:06:10;35.60;59.30
39585;DHT22;25278;53.674;10.014;2022-09-21T13:08:43;35.90;57.40
39585;DHT22;25278;53.674;10.014;2022-09-21T13:11:11;35.80;57.90
39585;DHT22;25278;53.674;10.014;2022-09-21T13:16:32;35.40;56.20
39585;DHT22;25278;53.674;10.014;2022-09-21T13:19:04;35.80;58.50
39585;DHT22;25278;53.674;10.014;2022-09-21T13:21:40;36.00;56.40
39585;DHT22;25278;53.674;10.014;2022-09-21T13:24:24;35.90;56.70
39585;DHT22;25278;53.674;10.014;2022-09-21T13:26:54;36.50;56.20
39585;DHT22;25278;53.674;10.014;2022-09-21T13:34:39;37.10;55.70
39585;DHT22;25278;53.674;10.014;2022-09-21T13:39:49;37.80;53.80
39585;DHT22;25278;53.674;10.014;2022-09-21T13:44:58;38.00;54.80
39585;DHT22;25278;53.674;10.014;2022-09-21T13:47:38;38.10;53.50
39585;DHT22;25278;53.674;10.014;2022-09-21T13:50:28;38.20;54.20
39585;DHT22;25278;53.674;10.014;2022-09-21T13:52:59;37.90;54.50
39585;DHT22;25278;53.674;10.014;2022-09-21T13:55:30;38.30;53.20
39585;DHT22;25278;53.674;10.014;2022-09-21T13:58:06;38.70;53.70
39585;DHT22;25278;53.674;10.014;2022-09-21T14:03:25;36.10;53.90
39585;DHT22;25278;53.674;10.014;2022-09-21T14:05:55;36.60;52.90
39585;DHT22;25278;53.674;10.014;2022-09-21T14:08:29;37.20;52.60
39585;DHT22;25278;53.674;10.014;2022-09-21T14:11:05;36.80;50.80
39585;DHT22;25278;53.674;10.014;2022-09-21T14:13:41;36.00;51.90
39585;DHT22;25278;53.674;10.014;2022-09-21T14:24:41;34.00;55.00
39585;DHT22;25278;53.674;10.014;2022-09-21T14:27:40;34.70;53.20
39585;DHT22;25278;53.674;10.014;2022-09-21T14:30:18;34.00;52.30
39585;DHT22;25278;53.674;10.014;2022-09-21T14:35:17;33.20;52.50
39585;DHT22;25278;53.674;10.014;2022-09-21T14:38:02;33.50;52.50
39585;DHT22;25278;53.674;10.014;2022-09-21T14:40:37;32.60;51.80
39585;DHT22;25278;53.674;10.014;2022-09-21T14:43:12;33.10;53.00
39585;DHT22;25278;53.674;10.014;2022-09-21T14:54:33;33.70;51.20
39585;DHT22;25278;53.674;10.014;2022-09-21T15:00:19;33.30;52.00
39585;DHT22;25278;53.674;10.014;2022-09-21T15:02:51;32.30;51.40
39585;DHT22;25278;53.674;10.014;2022-09-21T15:05:48;33.80;52.50
39585;DHT22;25278;53.674;10.014;2022-09-21T15:11:35;33.70;51.60
39585;DHT22;25278;53.674;10.014;2022-09-21T15:16:43;32.10;52.40
39585;DHT22;25278;53.674;10.014;2022-09-21T15:21:49;31.70;51.70
39585;DHT22;25278;53.674;10.014;2022-09-21T15:24:22;31.80;52.20
39585;DHT22;25278;53.674;10.014;2022-09-21T15:26:50;31.10;51.60
39585;DHT22;25278;53.674;10.014;2022-09-21T15:29:35;29.30;53.30
39585;DHT22;25278;53.674;10.014;2022-09-21T15:32:02;29.40;56.50
39585;DHT22;25278;53.674;10.014;2022-09-21T15:34:29;29.80;55.20
39585;DHT22;25278;53.674;10.014;2022-09-21T15:37:07;29.20;54.40
39585;DHT22;25278;53.674;10.014;2022-09-21T15:39:36;28.50;56.10
39585;DHT22;25278;53.674;10.014;2022-09-21T15:44:34;28.20;59.20
39585;DHT22;25278;53.674;10.014;2022-09-21T15:47:05;29.50;60.40
39585;DHT22;25278;53.674;10.014;2022-09-21T15:49:33;30.30;58.50
39585;DHT22;25278;53.674;10.014;2022-09-21T15:52:03;31.30;57.80
39585;DHT22;25278;53.674;10.014;2022-09-21T15:54:34;31.80;57.00
39585;DHT22;25278;53.674;10.014;2022-09-21T15:57:03;32.30;55.20
39585;DHT22;25278;53.674;10.014;2022-09-21T15:59:31;32.30;55.00
39585;DHT22;25278;53.674;10.014;2022-09-21T16:02:00;31.90;54.90
39585;DHT22;25278;53.674;10.014;2022-09-21T16:04:34;31.20;55.80
39585;DHT22;25278;53.674;10.014;2022-09-21T16:07:25;31.30;55.90
39585;DHT22;25278;53.674;10.014;2022-09-21T16:09:51;31.20;56.10
39585;DHT22;25278;53.674;10.014;2022-09-21T16:14:59;30.90;56.20
39585;DHT22;25278;53.674;10.014;2022-09-21T16:17:34;29.50;58.00
39585;DHT22;25278;53.674;10.014;2022-09-21T16:20:17;27.60;58.90
39585;DHT22;25278;53.674;10.014;2022-09-21T16:22:52;26.00;60.60
39585;DHT22;25278;53.674;10.014;2022-09-21T16:28:02;24.00;65.60
39585;DHT22;25278;53.674;10.014;2022-09-21T16:30:47;23.30;70.00
39585;DHT22;25278;53.674;10.014;2022-09-21T16:35:57;21.90;74.40
39585;DHT22;25278;53.674;10.014;2022-09-21T16:38:23;21.30;80.50
39585;DHT22;25278;53.674;10.014;2022-09-21T16:40:48;20.80;81.00
39585;DHT22;25278;53.674;10.014;2022-09-21T16:43:18;20.50;84.10
39585;DHT22;25278;53.674;10.014;2022-09-21T16:45:44;20.30;88.70
39585;DHT22;25278;53.674;10.014;2022-09-21T16:48:12;19.80;84.80
39585;DHT22;25278;53.674;10.014;2022-09-21T16:50:37;19.50;82.60
39585;DHT22;25278;53.674;10.014;2022-09-21T16:53:03;19.10;86.00
39585;DHT22;25278;53.674;10.014;2022-09-21T16:55:29;18.90;90.10
39585;DHT22;25278;53.674;10.014;2022-09-21T16:57:54;18.70;91.00
39585;DHT22;25278;53.674;10.014;2022-09-21T17:00:20;18.50;92.00
39585;DHT22;25278;53.674;10.014;2022-09-21T17:02:47;18.20;94.20
39585;DHT22;25278;53.674;10.014;2022-09-21T17:05:13;18.00;97.00
39585;DHT22;25278;53.674;10.014;2022-09-21T17:07:54;17.80;98.00
39585;DHT22;25278;53.674;10.014;2022-09-21T17:10:22;17.60;99.90
39585;DHT22;25278;53.674;10.014;2022-09-21T17:12:53;17.30;99.90
39585;DHT22;25278;53.674;10.014;2022-09-21T17:15:20;17.00;99.90
39585;DHT22;25278;53.674;10.014;2022-09-21T17:17:47;16.80;99.90
39585;DHT22;25278;53.674;10.014;2022-09-21T17:20:37;16.60;99.90
39585;DHT22;25278;53.674;10.014;2022-09-21T17:23:03;16.30;99.90
39585;DHT22;25278;53.674;10.014;2022-09-21T17:25:30;16.10;99.90
39585;DHT22;25278;53.674;10.014;2022-09-21T17:27:57;15.90;99.90
39585;DHT22;25278;53.674;10.014;2022-09-21T17:30:24;15.70;99.90
39585;DHT22;25278;53.674;10.014;2022-09-21T17:32:50;15.60;99.90
39585;DHT22;25278;53.674;10.014;2022-09-21T17:35:28;15.40;99.90
39585;DHT22;25278;53.674;10.014;2022-09-21T17:37:56;15.20;99.90
39585;DHT22;25278;53.674;10.014;2022-09-21T17:40:21;15.10;99.90
39585;DHT22;25278;53.674;10.014;2022-09-21T17:42:49;14.90;99.90
39585;DHT22;25278;53.674;10.014;2022-09-21T17:45:19;14.80;99.90
39585;DHT22;25278;53.674;10.014;2022-09-21T17:47:49;14.60;99.90
39585;DHT22;25278;53.674;10.014;2022-09-21T17:50:24;14.40;99.90
39585;DHT22;25278;53.674;10.014;2022-09-21T17:52:52;14.20;99.90
39585;DHT22;25278;53.674;10.014;2022-09-21T17:55:37;14.10;99.90
39585;DHT22;25278;53.674;10.014;2022-09-21T17:58:33;14.00;99.90
39585;DHT22;25278;53.674;10.014;2022-09-21T18:01:34;13.90;99.90
39585;DHT22;25278;53.674;10.014;2022-09-21T18:04:00;13.80;99.90
39585;DHT22;25278;53.674;10.014;2022-09-21T18:06:27;13.70;99.90
39585;DHT22;25278;53.674;10.014;2022-09-21T18:08:54;13.60;99.90
39585;DHT22;25278;53.674;10.014;2022-09-21T18:25:13;13.00;99.90
39585;DHT22;25278;53.674;10.014;2022-09-21T18:27:41;12.90;99.90
39585;DHT22;25278;53.674;10.014;2022-09-21T18:30:10;12.80;99.90
39585;DHT22;25278;53.674;10.014;2022-09-21T18:32:56;12.80;99.90
39585;DHT22;25278;53.674;10.014;2022-09-21T18:35:39;12.70;99.90
39585;DHT22;25278;53.674;10.014;2022-09-21T18:47:04;12.50;99.90
39585;DHT22;25278;53.674;10.014;2022-09-21T18:55:00;12.10;99.90
39585;DHT22;25278;53.674;10.014;2022-09-21T18:57:26;12.10;99.90
39585;DHT22;25278;53.674;10.014;2022-09-21T18:59:57;12.00;99.90
39585;DHT22;25278;53.674;10.014;2022-09-21T19:02:23;12.00;99.90
39585;DHT22;25278;53.674;10.014;2022-09-21T19:04:49;12.00;99.90
39585;DHT22;25278;53.674;10.014;2022-09-21T19:07:30;12.00;99.90
39585;DHT22;25278;53.674;10.014;2022-09-21T19:13:29;11.80;99.90
39585;DHT22;25278;53.674;10.014;2022-09-21T19:22:17;11.60;99.90
39585;DHT22;25278;53.674;10.014;2022-09-21T19:25:03;11.60;99.90
39585;DHT22;25278;53.674;10.014;2022-09-21T19:27:36;11.50;99.90
39585;DHT22;25278;53.674;10.014;2022-09-21T19:30:12;11.50;99.90
39585;DHT22;25278;53.674;10.014;2022-09-21T19:32:53;11.40;99.90
39585;DHT22;25278;53.674;10.014;2022-09-21T19:37:53;11.10;99.90
39585;DHT22;25278;53.674;10.014;2022-09-21T19:40:22;11.10;99.90
39585;DHT22;25278;53.674;10.014;2022-09-21T19:48:46;10.80;99.90
39585;DHT22;25278;53.674;10.014;2022-09-21T19:54:00;10.70;99.90
39585;DHT22;25278;53.674;10.014;2022-09-21T19:56:47;10.70;99.90
39585;DHT22;25278;53.674;10.014;2022-09-21T19:59:31;10.80;99.90
39585;DHT22;25278;53.674;10.014;2022-09-21T20:02:39;10.90;99.90
39585;DHT22;25278;53.674;10.014;2022-09-21T20:05:21;10.90;99.90
39585;DHT22;25278;53.674;10.014;2022-09-21T20:07:58;10.80;99.90
39585;DHT22;25278;53.674;10.014;2022-09-21T20:10:32;10.80;99.90
39585;DHT22;25278;53.674;10.014;2022-09-21T20:18:46;10.70;99.90
39585;DHT22;25278;53.674;10.014;2022-09-21T20:21:15;10.60;99.90
39585;DHT22;25278;53.674;10.014;2022-09-21T20:23:43;10.60;99.90
39585;DHT22;25278;53.674;10.014;2022-09-21T20:26:27;10.60;99.90
39585;DHT22;25278;53.674;10.014;2022-09-21T20:28:54;10.60;99.90
39585;DHT22;25278;53.674;10.014;2022-09-21T20:31:21;10.60;99.90
39585;DHT22;25278;53.674;10.014;2022-09-21T20:33:47;10.70;99.90
39585;DHT22;25278;53.674;10.014;2022-09-21T20:36:13;10.70;99.90
39585;DHT22;25278;53.674;10.014;2022-09-21T20:38:40;10.50;99.90
39585;DHT22;25278;53.674;10.014;2022-09-21T20:41:10;10.50;99.90
39585;DHT22;25278;53.674;10.014;2022-09-21T20:43:36;10.50;99.90
39585;DHT22;25278;53.674;10.014;2022-09-21T20:46:01;10.40;99.90
39585;DHT22;25278;53.674;10.014;2022-09-21T20:48:28;10.40;99.90
39585;DHT22;25278;53.674;10.014;2022-09-21T20:50:54;10.40;99.90
39585;DHT22;25278;53.674;10.014;2022-09-21T20:53:21;10.30;99.90
39585;DHT22;25278;53.674;10.014;2022-09-21T20:55:57;10.40;99.90
39585;DHT22;25278;53.674;10.014;2022-09-21T20:58:25;10.50;99.90
39585;DHT22;25278;53.674;10.014;2022-09-21T21:00:52;10.50;99.90
39585;DHT22;25278;53.674;10.014;2022-09-21T21:03:17;10.50;99.90
39585;DHT22;25278;53.674;10.014;2022-09-21T21:05:43;10.60;99.90
39585;DHT22;25278;53.674;10.014;2022-09-21T21:08:09;10.60;99.90
39585;DHT22;25278;53.674;10.014;2022-09-21T21:10:35;10.60;99.90
39585;DHT22;25278;53.674;10.014;2022-09-21T21:13:02;10.60;99.90
39585;DHT22;25278;53.674;10.014;2022-09-21T21:15:28;10.50;99.90
39585;DHT22;25278;53.674;10.014;2022-09-21T21:17:54;10.40;99.90
39585;DHT22;25278;53.674;10.014;2022-09-21T21:20:20;10.40;99.90
39585;DHT22;25278;53.674;10.014;2022-09-21T21:22:50;10.30;99.90
39585;DHT22;25278;53.674;10.014;2022-09-21T21:25:16;10.20;99.90
39585;DHT22;25278;53.674;10.014;2022-09-21T21:27:42;10.10;99.90
39585;DHT22;25278;53.674;10.014;2022-09-21T21:30:08;10.10;99.90
39585;DHT22;25278;53.674;10.014;2022-09-21T21:32:34;10.20;99.90
39585;DHT22;25278;53.674;10.014;2022-09-21T21:35:01;10.30;99.90
39585;DHT22;25278;53.674;10.014;2022-09-21T21:37:27;10.40;99.90
39585;DHT22;25278;53.674;10.014;2022-09-21T21:39:53;10.40;99.90
39585;DHT22;25278;53.674;10.014;2022-09-21T21:42:19;10.50;99.90
39585;DHT22;25278;53.674;10.014;2022-09-21T21:44:46;10.50;99.90
39585;DHT22;25278;53.674;10.014;2022-09-21T21:47:12;10.40;99.90
39585;DHT22;25278;53.674;10.014;2022-09-21T21:49:38;10.40;99.90
39585;DHT22;25278;53.674;10.014;2022-09-21T21:52:04;10.30;99.90
39585;DHT22;25278;53.674;10.014;2022-09-21T21:54:32;10.30;99.90
39585;DHT22;25278;53.674;10.014;2022-09-21T21:56:58;10.20;99.90
39585;DHT22;25278;53.674;10.014;2022-09-21T21:59:25;10.10;99.90
39585;DHT22;25278;53.674;10.014;2022-09-21T22:01:51;10.10;99.90
39585;DHT22;25278;53.674;10.014;2022-09-21T22:04:17;10.00;99.90
39585;DHT22;25278;53.674;10.014;2022-09-21T22:06:43;10.10;99.90
39585;DHT22;25278;53.674;10.014;2022-09-21T22:09:09;10.00;99.90
39585;DHT22;25278;53.674;10.014;2022-09-21T22:11:35;10.00;99.90
39585;DHT22;25278;53.674;10.014;2022-09-21T22:14:02;10.00;99.90
39585;DHT22;25278;53.674;10.014;2022-09-21T22:16:29;9.90;99.90
39585;DHT22;25278;53.674;10.014;2022-09-21T22:18:56;9.90;99.90
39585;DHT22;25278;53.674;10.014;2022-09-21T22:21:24;9.80;99.90
39585;DHT22;25278;53.674;10.014;2022-09-21T22:23:55;9.80;99.90